sensor_id;sensor_type;location;lat;lon;timestamp;pressure;altitude;pressure_sealevel;temperature;humidity
57990;BME280;58373;51.824;5.564;2023-03-16T00:01:34;101700.22;;;3.31;71.04
57990;BME280;58373;51.824;5.564;2023-03-16T00:03:59;101696.75;;;3.32;71.03
57990;BME280;58373;51.824;5.564;2023-03-16T00:06:24;101697.53;;;3.34;71.06
57990;BME280;58373;51.824;5.564;2023-03-16T00:08:49;101691.59;;;3.33;72.19
57990;BME280;58373;51.824;5.564;2023-03-16T00:11:14;101694.09;;;3.35;71.03
57990;BME280;58373;51.824;5.564;2023-03-16T00:13:40;101700.88;;;3.36;71.78
57990;BME280;58373;51.824;5.564;2023-03-16T00:16:06;101700.88;;;3.36;71.57
57990;BME280;58373;51.824;5.564;2023-03-16T00:18:32;101699.09;;;3.38;72.51
57990;BME280;58373;51.824;5.564;2023-03-16T00:21:03;101701.66;;;3.38;73.38
57990;BME280;58373;51.824;5.564;2023-03-16T00:23:29;101690.53;;;3.39;72.91
57990;BME280;58373;51.824;5.564;2023-03-16T00:25:59;101685.41;;;3.39;72.03
57990;BME280;58373;51.824;5.564;2023-03-16T00:28:27;101682.84;;;3.39;72.32
57990;BME280;58373;51.824;5.564;2023-03-16T00:30:52;101679.38;;;3.40;72.62
57990;BME280;58373;51.824;5.564;2023-03-16T00:33:22;101679.38;;;3.40;73.57
57990;BME280;58373;51.824;5.564;2023-03-16T00:35:48;101676.81;;;3.40;73.16
57990;BME280;58373;51.824;5.564;2023-03-16T00:38:13;101671.66;;;3.40;72.90
57990;BME280;58373;51.824;5.564;2023-03-16T00:40:39;101671.66;;;3.40;73.50
57990;BME280;58373;51.824;5.564;2023-03-16T00:43:04;101666.53;;;3.40;73.92
57990;BME280;58373;51.824;5.564;2023-03-16T00:45:29;101661.41;;;3.40;72.08
57990;BME280;58373;51.824;5.564;2023-03-16T00:47:54;101654.63;;;3.39;73.55
57990;BME280;58373;51.824;5.564;2023-03-16T00:50:19;101664.03;;;3.38;73.26
57990;BME280;58373;51.824;5.564;2023-03-16T00:52:46;101651.16;;;3.40;72.96
57990;BME280;58373;51.824;5.564;2023-03-16T00:55:11;101652.81;;;3.41;74.72
57990;BME280;58373;51.824;5.564;2023-03-16T00:57:37;101647.69;;;3.41;74.49
57990;BME280;58373;51.824;5.564;2023-03-16T01:00:03;101640.91;;;3.40;75.54
57990;BME280;58373;51.824;5.564;2023-03-16T01:02:36;101647.69;;;3.41;74.57
57990;BME280;58373;51.824;5.564;2023-03-16T01:05:02;101636.53;;;3.42;74.90
57990;BME280;58373;51.824;5.564;2023-03-16T01:07:29;101628.00;;;3.41;74.61
57990;BME280;58373;51.824;5.564;2023-03-16T01:09:56;101633.97;;;3.42;74.48
57990;BME280;58373;51.824;5.564;2023-03-16T01:12:22;101633.97;;;3.42;73.56
57990;BME280;58373;51.824;5.564;2023-03-16T01:14:47;101619.41;;;3.42;73.88
57990;BME280;58373;51.824;5.564;2023-03-16T01:17:13;101615.13;;;3.43;74.15
57990;BME280;58373;51.824;5.564;2023-03-16T01:19:39;101609.09;;;3.44;74.03
57990;BME280;58373;51.824;5.564;2023-03-16T01:22:05;101604.69;;;3.47;73.07
57990;BME280;58373;51.824;5.564;2023-03-16T01:24:31;101599.69;;;3.44;74.19
57990;BME280;58373;51.824;5.564;2023-03-16T01:26:56;101603.09;;;3.45;75.55
57990;BME280;58373;51.824;5.564;2023-03-16T01:29:21;101604.75;;;3.46;74.26
57990;BME280;58373;51.824;5.564;2023-03-16T01:31:47;101599.75;;;3.43;74.27
57990;BME280;58373;51.824;5.564;2023-03-16T01:34:14;101596.28;;;3.44;74.73
57990;BME280;58373;51.824;5.564;2023-03-16T01:36:42;101608.22;;;3.45;73.93
57990;BME280;58373;51.824;5.564;2023-03-16T01:39:08;101597.97;;;3.45;74.82
57990;BME280;58373;51.824;5.564;2023-03-16T01:41:34;101603.09;;;3.45;75.62
57990;BME280;58373;51.824;5.564;2023-03-16T01:43:59;101592.84;;;3.45;75.71
57990;BME280;58373;51.824;5.564;2023-03-16T01:46:25;101590.28;;;3.45;75.83
57990;BME280;58373;51.824;5.564;2023-03-16T01:48:55;101587.72;;;3.45;75.43
57990;BME280;58373;51.824;5.564;2023-03-16T01:51:23;101586.00;;;3.44;76.07
57990;BME280;58373;51.824;5.564;2023-03-16T01:53:50;101579.22;;;3.43;75.76
57990;BME280;58373;51.824;5.564;2023-03-16T01:56:19;101575.00;;;3.42;77.22
57990;BME280;58373;51.824;5.564;2023-03-16T01:58:47;101584.34;;;3.43;76.21
57990;BME280;58373;51.824;5.564;2023-03-16T02:01:14;101576.63;;;3.44;75.60
57990;BME280;58373;51.824;5.564;2023-03-16T02:03:40;101570.63;;;3.44;75.57
57990;BME280;58373;51.824;5.564;2023-03-16T02:06:08;101562.06;;;3.45;75.48
57990;BME280;58373;51.824;5.564;2023-03-16T02:08:36;101562.06;;;3.45;75.40
57990;BME280;58373;51.824;5.564;2023-03-16T02:11:01;101567.19;;;3.45;75.26
57990;BME280;58373;51.824;5.564;2023-03-16T02:13:28;101556.94;;;3.45;75.45
57990;BME280;58373;51.824;5.564;2023-03-16T02:15:57;101556.94;;;3.45;75.55
57990;BME280;58373;51.824;5.564;2023-03-16T02:18:23;101551.81;;;3.45;75.25
57990;BME280;58373;51.824;5.564;2023-03-16T02:21:25;101553.47;;;3.46;75.95
57990;BME280;58373;51.824;5.564;2023-03-16T02:23:40;101548.44;;;3.43;75.58
57990;BME280;58373;51.824;5.564;2023-03-16T02:26:09;101549.19;;;3.46;76.52
57990;BME280;58373;51.824;5.564;2023-03-16T02:31:22;101551.66;;;3.48;76.04
57990;BME280;58373;51.824;5.564;2023-03-16T02:33:48;101534.50;;;3.50;75.57
57990;BME280;58373;51.824;5.564;2023-03-16T02:36:16;101541.31;;;3.51;76.07
57990;BME280;58373;51.824;5.564;2023-03-16T02:38:41;101537.06;;;3.50;76.07
57990;BME280;58373;51.824;5.564;2023-03-16T02:41:10;101538.75;;;3.51;75.59
57990;BME280;58373;51.824;5.564;2023-03-16T02:43:36;101527.56;;;3.52;76.19
57990;BME280;58373;51.824;5.564;2023-03-16T02:46:02;101539.50;;;3.53;76.82
57990;BME280;58373;51.824;5.564;2023-03-16T02:50:56;101548.84;;;3.54;76.31
57990;BME280;58373;51.824;5.564;2023-03-16T02:53:21;101540.31;;;3.54;76.85
57990;BME280;58373;51.824;5.564;2023-03-16T02:55:46;101549.75;;;3.53;77.11
57990;BME280;58373;51.824;5.564;2023-03-16T02:58:12;101554.06;;;3.53;76.52
57990;BME280;58373;51.824;5.564;2023-03-16T03:00:38;101544.63;;;3.53;76.98
57990;BME280;58373;51.824;5.564;2023-03-16T03:03:04;101544.63;;;3.53;76.81
57990;BME280;58373;51.824;5.564;2023-03-16T03:05:29;101558.34;;;3.52;76.96
57990;BME280;58373;51.824;5.564;2023-03-16T03:07:55;101554.88;;;3.53;76.75
57990;BME280;58373;51.824;5.564;2023-03-16T03:10:20;101546.28;;;3.54;77.06
57990;BME280;58373;51.824;5.564;2023-03-16T03:12:45;101537.84;;;3.52;77.09
57990;BME280;58373;51.824;5.564;2023-03-16T03:15:13;101550.66;;;3.52;76.70
57990;BME280;58373;51.824;5.564;2023-03-16T03:17:39;101546.44;;;3.51;78.01
57990;BME280;58373;51.824;5.564;2023-03-16T03:20:04;101551.56;;;3.51;78.41
57990;BME280;58373;51.824;5.564;2023-03-16T03:22:37;101532.81;;;3.49;78.54
57990;BME280;58373;51.824;5.564;2023-03-16T03:25:02;101534.50;;;3.50;78.16
57990;BME280;58373;51.824;5.564;2023-03-16T03:27:28;101526.84;;;3.49;78.82
57990;BME280;58373;51.824;5.564;2023-03-16T03:29:53;101522.69;;;3.46;78.22
57990;BME280;58373;51.824;5.564;2023-03-16T03:32:18;101524.47;;;3.44;78.50
57990;BME280;58373;51.824;5.564;2023-03-16T03:34:43;101517.69;;;3.43;79.42
57990;BME280;58373;51.824;5.564;2023-03-16T03:37:09;101504.09;;;3.41;79.54
57990;BME280;58373;51.824;5.564;2023-03-16T03:39:34;101507.56;;;3.40;79.03
57990;BME280;58373;51.824;5.564;2023-03-16T03:41:59;101505.06;;;3.38;80.27
57990;BME280;58373;51.824;5.564;2023-03-16T03:44:26;101499.09;;;3.38;80.17
57990;BME280;58373;51.824;5.564;2023-03-16T03:46:52;101508.50;;;3.37;80.33
57990;BME280;58373;51.824;5.564;2023-03-16T03:49:17;101506.00;;;3.36;80.76
57990;BME280;58373;51.824;5.564;2023-03-16T03:51:43;101504.34;;;3.35;80.88
57990;BME280;58373;51.824;5.564;2023-03-16T03:54:08;101501.84;;;3.33;81.46
57990;BME280;58373;51.824;5.564;2023-03-16T03:56:33;101491.63;;;3.32;81.47
57990;BME280;58373;51.824;5.564;2023-03-16T03:58:59;101499.34;;;3.32;81.55
57990;BME280;58373;51.824;5.564;2023-03-16T04:01:24;101496.78;;;3.32;81.33
57990;BME280;58373;51.824;5.564;2023-03-16T04:03:49;101500.22;;;3.31;81.67
57990;BME280;58373;51.824;5.564;2023-03-16T04:06:14;101496.00;;;3.30;81.32
57990;BME280;58373;51.824;5.564;2023-03-16T04:08:40;101490.88;;;3.30;81.06
57990;BME280;58373;51.824;5.564;2023-03-16T04:11:05;101496.00;;;3.30;81.34
57990;BME280;58373;51.824;5.564;2023-03-16T04:13:31;101499.47;;;3.29;82.01
57990;BME280;58373;51.824;5.564;2023-03-16T04:15:56;101492.69;;;3.28;82.06
57990;BME280;58373;51.824;5.564;2023-03-16T04:18:22;101490.13;;;3.28;82.14
57990;BME280;58373;51.824;5.564;2023-03-16T04:20:47;101490.16;;;3.26;82.11
57990;BME280;58373;51.824;5.564;2023-03-16T04:23:12;101494.47;;;3.26;82.36
57990;BME280;58373;51.824;5.564;2023-03-16T04:25:38;101489.31;;;3.26;82.22
57990;BME280;58373;51.824;5.564;2023-03-16T04:28:03;101487.66;;;3.25;81.25
57990;BME280;58373;51.824;5.564;2023-03-16T04:30:28;101491.13;;;3.24;81.78
57990;BME280;58373;51.824;5.564;2023-03-16T04:32:54;101480.88;;;3.24;82.02
57990;BME280;58373;51.824;5.564;2023-03-16T04:35:20;101485.09;;;3.25;81.42
57990;BME280;58373;51.824;5.564;2023-03-16T04:37:46;101488.56;;;3.24;80.85
57990;BME280;58373;51.824;5.564;2023-03-16T04:40:11;101480.88;;;3.24;81.33
57990;BME280;58373;51.824;5.564;2023-03-16T04:42:39;101476.59;;;3.24;82.03
57990;BME280;58373;51.824;5.564;2023-03-16T04:45:04;101482.53;;;3.25;82.03
57990;BME280;58373;51.824;5.564;2023-03-16T04:47:30;101475.75;;;3.24;81.89
57990;BME280;58373;51.824;5.564;2023-03-16T04:49:57;101473.94;;;3.26;81.76
57990;BME280;58373;51.824;5.564;2023-03-16T04:52:22;101472.19;;;3.28;81.56
57990;BME280;58373;51.824;5.564;2023-03-16T04:54:48;101477.31;;;3.28;81.53
57990;BME280;58373;51.824;5.564;2023-03-16T04:57:13;101467.06;;;3.28;81.06
57990;BME280;58373;51.824;5.564;2023-03-16T04:59:38;101468.72;;;3.29;81.97
57990;BME280;58373;51.824;5.564;2023-03-16T05:02:04;101473.84;;;3.29;81.63
57990;BME280;58373;51.824;5.564;2023-03-16T05:04:29;101464.34;;;3.31;82.44
57990;BME280;58373;51.824;5.564;2023-03-16T05:06:54;101465.25;;;3.30;82.02
57990;BME280;58373;51.824;5.564;2023-03-16T05:09:20;101472.03;;;3.31;82.34
57990;BME280;58373;51.824;5.564;2023-03-16T05:11:45;101466.91;;;3.31;81.82
57990;BME280;58373;51.824;5.564;2023-03-16T05:14:10;101454.00;;;3.32;81.99
57990;BME280;58373;51.824;5.564;2023-03-16T05:16:35;101458.31;;;3.32;81.18
57990;BME280;58373;51.824;5.564;2023-03-16T05:19:00;101459.16;;;3.32;81.38
57990;BME280;58373;51.824;5.564;2023-03-16T05:21:26;101459.09;;;3.34;81.81
57990;BME280;58373;51.824;5.564;2023-03-16T05:23:51;101451.41;;;3.34;81.21
57990;BME280;58373;51.824;5.564;2023-03-16T05:26:17;101458.19;;;3.35;81.72
57990;BME280;58373;51.824;5.564;2023-03-16T05:28:42;101461.53;;;3.37;81.52
57990;BME280;58373;51.824;5.564;2023-03-16T05:31:07;101460.69;;;3.36;80.96
57990;BME280;58373;51.824;5.564;2023-03-16T05:33:33;101462.44;;;3.36;81.73
57990;BME280;58373;51.824;5.564;2023-03-16T05:35:58;101457.22;;;3.37;81.18
57990;BME280;58373;51.824;5.564;2023-03-16T05:38:23;101455.50;;;3.38;81.46
57990;BME280;58373;51.824;5.564;2023-03-16T05:40:49;101452.94;;;3.38;81.08
57990;BME280;58373;51.824;5.564;2023-03-16T05:43:19;101461.41;;;3.40;81.92
57990;BME280;58373;51.824;5.564;2023-03-16T05:45:44;101456.28;;;3.40;82.14
57990;BME280;58373;51.824;5.564;2023-03-16T05:48:10;101452.81;;;3.41;81.50
57990;BME280;58373;51.824;5.564;2023-03-16T05:50:35;101447.69;;;3.41;81.46
57990;BME280;58373;51.824;5.564;2023-03-16T05:53:00;101447.69;;;3.41;81.62
57990;BME280;58373;51.824;5.564;2023-03-16T05:55:25;101447.69;;;3.41;81.50
57990;BME280;58373;51.824;5.564;2023-03-16T05:57:51;101450.19;;;3.42;81.96
57990;BME280;58373;51.824;5.564;2023-03-16T06:00:16;101444.16;;;3.43;81.81
57990;BME280;58373;51.824;5.564;2023-03-16T06:02:43;101439.84;;;3.44;81.75
57990;BME280;58373;51.824;5.564;2023-03-16T06:05:09;101438.97;;;3.45;82.23
57990;BME280;58373;51.824;5.564;2023-03-16T06:07:34;101438.97;;;3.45;82.08
57990;BME280;58373;51.824;5.564;2023-03-16T06:09:59;101439.81;;;3.45;82.07
57990;BME280;58373;51.824;5.564;2023-03-16T06:12:24;101433.84;;;3.45;82.71
57990;BME280;58373;51.824;5.564;2023-03-16T06:14:50;101440.72;;;3.44;81.95
57990;BME280;58373;51.824;5.564;2023-03-16T06:17:15;101438.97;;;3.45;81.50
57990;BME280;58373;51.824;5.564;2023-03-16T06:19:40;101448.41;;;3.44;82.31
57990;BME280;58373;51.824;5.564;2023-03-16T06:22:05;101437.28;;;3.44;82.22
57990;BME280;58373;51.824;5.564;2023-03-16T06:24:31;101435.63;;;3.43;82.58
57990;BME280;58373;51.824;5.564;2023-03-16T06:26:56;101444.09;;;3.45;82.39
57990;BME280;58373;51.824;5.564;2023-03-16T06:29:21;101433.84;;;3.45;82.95
57990;BME280;58373;51.824;5.564;2023-03-16T06:31:46;101431.28;;;3.45;82.45
57990;BME280;58373;51.824;5.564;2023-03-16T06:34:11;101432.03;;;3.47;83.03
57990;BME280;58373;51.824;5.564;2023-03-16T06:36:37;101421.78;;;3.47;82.96
57990;BME280;58373;51.824;5.564;2023-03-16T06:39:03;101427.75;;;3.47;83.15
57990;BME280;58373;51.824;5.564;2023-03-16T06:41:29;101429.41;;;3.49;83.44
57990;BME280;58373;51.824;5.564;2023-03-16T06:43:54;101437.94;;;3.49;82.42
57990;BME280;58373;51.824;5.564;2023-03-16T06:46:19;101420.88;;;3.48;82.68
57990;BME280;58373;51.824;5.564;2023-03-16T06:48:45;101428.56;;;3.48;82.96
57990;BME280;58373;51.824;5.564;2023-03-16T06:51:11;101430.31;;;3.47;82.90
57990;BME280;58373;51.824;5.564;2023-03-16T06:53:36;101433.69;;;3.48;83.08
57990;BME280;58373;51.824;5.564;2023-03-16T06:56:01;101435.38;;;3.49;83.60
57990;BME280;58373;51.824;5.564;2023-03-16T06:58:26;101440.50;;;3.49;82.84
57990;BME280;58373;51.824;5.564;2023-03-16T07:00:52;101440.50;;;3.49;83.56
57990;BME280;58373;51.824;5.564;2023-03-16T07:03:17;101431.13;;;3.48;82.81
57990;BME280;58373;51.824;5.564;2023-03-16T07:05:43;101435.38;;;3.49;84.09
57990;BME280;58373;51.824;5.564;2023-03-16T07:08:08;101423.44;;;3.48;84.25
57990;BME280;58373;51.824;5.564;2023-03-16T07:10:34;101425.09;;;3.49;83.57
57990;BME280;58373;51.824;5.564;2023-03-16T07:12:59;101421.66;;;3.50;83.19
57990;BME280;58373;51.824;5.564;2023-03-16T07:15:24;101419.97;;;3.49;83.87
57990;BME280;58373;51.824;5.564;2023-03-16T07:17:50;101408.88;;;3.49;83.35
57990;BME280;58373;51.824;5.564;2023-03-16T07:20:16;101406.28;;;3.50;84.26
57990;BME280;58373;51.824;5.564;2023-03-16T07:22:41;101408.78;;;3.52;83.94
57990;BME280;58373;51.824;5.564;2023-03-16T07:25:07;101406.13;;;3.53;84.35
57990;BME280;58373;51.824;5.564;2023-03-16T07:27:32;101400.88;;;3.56;84.13
57990;BME280;58373;51.824;5.564;2023-03-16T07:29:58;101411.97;;;3.57;84.42
57990;BME280;58373;51.824;5.564;2023-03-16T07:32:24;101409.34;;;3.58;84.73
57990;BME280;58373;51.824;5.564;2023-03-16T07:34:49;101423.75;;;3.61;85.05
57990;BME280;58373;51.824;5.564;2023-03-16T07:37:15;101417.69;;;3.63;84.42
57990;BME280;58373;51.824;5.564;2023-03-16T07:39:40;101415.88;;;3.65;84.45
57990;BME280;58373;51.824;5.564;2023-03-16T07:42:06;101417.53;;;3.66;84.82
57990;BME280;58373;51.824;5.564;2023-03-16T07:44:31;101420.88;;;3.68;84.33
57990;BME280;58373;51.824;5.564;2023-03-16T07:46:56;101417.41;;;3.69;85.05
57990;BME280;58373;51.824;5.564;2023-03-16T07:49:21;101416.44;;;3.72;84.74
57990;BME280;58373;51.824;5.564;2023-03-16T07:51:47;101417.25;;;3.72;85.63
57990;BME280;58373;51.824;5.564;2023-03-16T07:54:12;101415.47;;;3.75;85.46
57990;BME280;58373;51.824;5.564;2023-03-16T07:56:38;101406.88;;;3.76;84.98
57990;BME280;58373;51.824;5.564;2023-03-16T07:59:03;101403.41;;;3.77;85.73
57990;BME280;58373;51.824;5.564;2023-03-16T08:01:28;101402.47;;;3.79;86.06
57990;BME280;58373;51.824;5.564;2023-03-16T08:03:53;101402.38;;;3.81;85.79
57990;BME280;58373;51.824;5.564;2023-03-16T08:06:19;101401.47;;;3.82;85.50
57990;BME280;58373;51.824;5.564;2023-03-16T08:08:45;101401.34;;;3.85;85.58
57990;BME280;58373;51.824;5.564;2023-03-16T08:11:10;101399.53;;;3.87;85.59
57990;BME280;58373;51.824;5.564;2023-03-16T08:13:35;101403.69;;;3.89;86.28
57990;BME280;58373;51.824;5.564;2023-03-16T08:16:01;101401.91;;;3.91;86.31
57990;BME280;58373;51.824;5.564;2023-03-16T08:18:26;101392.31;;;3.95;85.87
57990;BME280;58373;51.824;5.564;2023-03-16T08:20:52;101390.38;;;4.00;85.74
57990;BME280;58373;51.824;5.564;2023-03-16T08:23:17;101380.00;;;4.03;85.29
57990;BME280;58373;51.824;5.564;2023-03-16T08:25:43;101379.84;;;4.06;85.82
57990;BME280;58373;51.824;5.564;2023-03-16T08:28:08;101371.09;;;4.10;86.51
57990;BME280;58373;51.824;5.564;2023-03-16T08:30:34;101364.94;;;4.14;85.76
57990;BME280;58373;51.824;5.564;2023-03-16T08:33:00;101384.41;;;4.18;86.49
57990;BME280;58373;51.824;5.564;2023-03-16T08:35:27;101378.16;;;4.24;86.60
57990;BME280;58373;51.824;5.564;2023-03-16T08:37:53;101393.31;;;4.30;87.10
57990;BME280;58373;51.824;5.564;2023-03-16T08:40:18;101393.97;;;4.34;86.24
57990;BME280;58373;51.824;5.564;2023-03-16T08:42:46;101391.19;;;4.38;86.33
57990;BME280;58373;51.824;5.564;2023-03-16T08:45:14;101391.91;;;4.42;86.05
57990;BME280;58373;51.824;5.564;2023-03-16T08:47:39;101396.88;;;4.45;85.73
57990;BME280;58373;51.824;5.564;2023-03-16T08:50:04;101389.78;;;4.50;86.11
57990;BME280;58373;51.824;5.564;2023-03-16T08:52:31;101396.47;;;4.54;85.69
57990;BME280;58373;51.824;5.564;2023-03-16T08:54:57;101383.38;;;4.59;85.64
57990;BME280;58373;51.824;5.564;2023-03-16T08:57:22;101392.53;;;4.64;85.64
57990;BME280;58373;51.824;5.564;2023-03-16T08:59:48;101377.72;;;4.69;84.65
57990;BME280;58373;51.824;5.564;2023-03-16T09:02:13;101380.91;;;4.74;84.19
57990;BME280;58373;51.824;5.564;2023-03-16T09:04:39;101376.38;;;4.79;84.46
57990;BME280;58373;51.824;5.564;2023-03-16T09:07:04;101378.66;;;4.86;84.61
57990;BME280;58373;51.824;5.564;2023-03-16T09:09:29;101378.34;;;4.92;84.56
57990;BME280;58373;51.824;5.564;2023-03-16T09:11:55;101365.38;;;4.95;84.13
57990;BME280;58373;51.824;5.564;2023-03-16T09:14:21;101372.91;;;4.98;84.02
57990;BME280;58373;51.824;5.564;2023-03-16T09:16:46;101375.34;;;5.01;83.99
57990;BME280;58373;51.824;5.564;2023-03-16T09:19:12;101376.09;;;5.03;83.72
57990;BME280;58373;51.824;5.564;2023-03-16T09:21:37;101372.59;;;5.04;83.44
57990;BME280;58373;51.824;5.564;2023-03-16T09:24:03;101368.16;;;5.07;83.22
57990;BME280;58373;51.824;5.564;2023-03-16T09:26:28;101359.44;;;5.10;82.54
57990;BME280;58373;51.824;5.564;2023-03-16T09:28:54;101357.47;;;5.15;82.30
57990;BME280;58373;51.824;5.564;2023-03-16T09:31:19;101362.47;;;5.18;81.89
57990;BME280;58373;51.824;5.564;2023-03-16T09:33:45;101362.28;;;5.21;82.40
57990;BME280;58373;51.824;5.564;2023-03-16T09:36:11;101363.81;;;5.25;82.16
57990;BME280;58373;51.824;5.564;2023-03-16T09:38:37;101361.84;;;5.30;82.06
57990;BME280;58373;51.824;5.564;2023-03-16T09:41:07;101368.34;;;5.38;81.61
57990;BME280;58373;51.824;5.564;2023-03-16T09:46:28;101365.91;;;5.52;80.83
57990;BME280;58373;51.824;5.564;2023-03-16T09:48:56;101367.47;;;5.54;81.23
57990;BME280;58373;51.824;5.564;2023-03-16T09:51:26;101361.03;;;5.63;80.35
57990;BME280;58373;51.824;5.564;2023-03-16T09:53:58;101360.75;;;5.68;80.47
57990;BME280;58373;51.824;5.564;2023-03-16T09:56:29;101362.94;;;5.75;80.81
57990;BME280;58373;51.824;5.564;2023-03-16T09:58:57;101363.31;;;5.85;79.97
57990;BME280;58373;51.824;5.564;2023-03-16T10:01:32;101366.22;;;5.95;80.45
57990;BME280;58373;51.824;5.564;2023-03-16T10:04:05;101352.88;;;6.04;79.58
57990;BME280;58373;51.824;5.564;2023-03-16T10:06:34;101347.19;;;6.13;79.07
57990;BME280;58373;51.824;5.564;2023-03-16T10:09:23;101351.88;;;6.22;79.08
57990;BME280;58373;51.824;5.564;2023-03-16T10:11:53;101334.81;;;6.35;79.11
57990;BME280;58373;51.824;5.564;2023-03-16T10:14:24;101338.38;;;6.49;78.05
57990;BME280;58373;51.824;5.564;2023-03-16T10:16:57;101326.34;;;6.63;77.89
57990;BME280;58373;51.824;5.564;2023-03-16T10:19:47;101331.28;;;6.82;76.89
57990;BME280;58373;51.824;5.564;2023-03-16T10:22:23;101321.94;;;6.96;76.62
57990;BME280;58373;51.824;5.564;2023-03-16T10:27:33;101316.81;;;7.24;76.13
57990;BME280;58373;51.824;5.564;2023-03-16T10:30:01;101324.72;;;7.35;74.77
57990;BME280;58373;51.824;5.564;2023-03-16T10:32:29;101326.38;;;7.51;74.45
57990;BME280;58373;51.824;5.564;2023-03-16T10:34:56;101312.25;;;7.56;73.96
57990;BME280;58373;51.824;5.564;2023-03-16T10:37:23;101311.97;;;7.75;72.29
57990;BME280;58373;51.824;5.564;2023-03-16T10:39:50;101312.22;;;7.85;71.12
57990;BME280;58373;51.824;5.564;2023-03-16T10:42:16;101307.97;;;7.98;71.08
57990;BME280;58373;51.824;5.564;2023-03-16T10:44:42;101294.38;;;8.09;71.50
57990;BME280;58373;51.824;5.564;2023-03-16T10:47:14;101307.78;;;8.14;71.27
57990;BME280;58373;51.824;5.564;2023-03-16T10:49:42;101305.03;;;8.17;69.62
57990;BME280;58373;51.824;5.564;2023-03-16T10:52:14;101298.53;;;8.24;69.96
57990;BME280;58373;51.824;5.564;2023-03-16T10:54:46;101300.66;;;8.32;69.25
57990;BME280;58373;51.824;5.564;2023-03-16T10:57:35;101299.06;;;8.43;69.80
57990;BME280;58373;51.824;5.564;2023-03-16T11:00:02;101299.25;;;8.53;68.55
57990;BME280;58373;51.824;5.564;2023-03-16T11:02:32;101299.69;;;8.60;68.04
57990;BME280;58373;51.824;5.564;2023-03-16T11:04:58;101284.41;;;8.69;69.15
57990;BME280;58373;51.824;5.564;2023-03-16T11:07:23;101279.66;;;8.76;68.30
57990;BME280;58373;51.824;5.564;2023-03-16T11:09:53;101286.91;;;8.84;67.61
57990;BME280;58373;51.824;5.564;2023-03-16T11:12:27;101280.69;;;8.86;68.13
57990;BME280;58373;51.824;5.564;2023-03-16T11:14:54;101273.75;;;8.87;68.16
57990;BME280;58373;51.824;5.564;2023-03-16T11:17:36;101272.00;;;8.87;68.36
57990;BME280;58373;51.824;5.564;2023-03-16T11:20:04;101270.34;;;8.86;68.16
57990;BME280;58373;51.824;5.564;2023-03-16T11:22:38;101277.16;;;8.87;68.35
57990;BME280;58373;51.824;5.564;2023-03-16T11:27:52;101269.22;;;8.90;67.47
57990;BME280;58373;51.824;5.564;2023-03-16T11:32:49;101261.88;;;8.97;66.48
57990;BME280;58373;51.824;5.564;2023-03-16T11:35:19;101255.66;;;8.99;67.19
57990;BME280;58373;51.824;5.564;2023-03-16T11:38:07;101247.69;;;9.02;66.32
57990;BME280;58373;51.824;5.564;2023-03-16T11:46:08;101240.97;;;9.13;65.58
57990;BME280;58373;51.824;5.564;2023-03-16T11:51:03;101226.66;;;9.20;64.00
57990;BME280;58373;51.824;5.564;2023-03-16T11:53:46;101219.59;;;9.22;63.56
57990;BME280;58373;51.824;5.564;2023-03-16T11:56:15;101223.53;;;9.27;64.55
57990;BME280;58373;51.824;5.564;2023-03-16T11:58:59;101227.44;;;9.33;64.87
57990;BME280;58373;51.824;5.564;2023-03-16T12:04:12;101222.03;;;9.49;64.09
57990;BME280;58373;51.824;5.564;2023-03-16T12:14:50;101210.09;;;9.83;62.02
57990;BME280;58373;51.824;5.564;2023-03-16T12:17:28;101205.16;;;9.91;61.05
57990;BME280;58373;51.824;5.564;2023-03-16T12:19:56;101202.75;;;10.01;62.13
57990;BME280;58373;51.824;5.564;2023-03-16T12:25:17;101188.53;;;10.18;61.14
57990;BME280;58373;51.824;5.564;2023-03-16T12:27:46;101183.91;;;10.34;59.64
57990;BME280;58373;51.824;5.564;2023-03-16T12:37:52;101160.84;;;10.76;59.31
57990;BME280;58373;51.824;5.564;2023-03-16T12:40:24;101162.94;;;10.82;60.00
57990;BME280;58373;51.824;5.564;2023-03-16T12:45:34;101148.06;;;10.95;58.82
57990;BME280;58373;51.824;5.564;2023-03-16T12:48:11;101151.72;;;11.04;59.54
57990;BME280;58373;51.824;5.564;2023-03-16T12:50:46;101153.72;;;11.11;58.74
57990;BME280;58373;51.824;5.564;2023-03-16T12:53:23;101139.56;;;11.15;59.65
57990;BME280;58373;51.824;5.564;2023-03-16T12:55:50;101135.78;;;11.20;57.48
57990;BME280;58373;51.824;5.564;2023-03-16T12:58:15;101129.03;;;11.17;58.49
57990;BME280;58373;51.824;5.564;2023-03-16T13:00:41;101128.94;;;11.19;59.26
57990;BME280;58373;51.824;5.564;2023-03-16T13:03:19;101119.47;;;11.29;58.15
57990;BME280;58373;51.824;5.564;2023-03-16T13:05:45;101114.84;;;11.32;56.90
57990;BME280;58373;51.824;5.564;2023-03-16T13:08:14;101109.03;;;11.40;58.32
57990;BME280;58373;51.824;5.564;2023-03-16T13:10:40;101121.53;;;11.46;56.67
57990;BME280;58373;51.824;5.564;2023-03-16T13:13:15;101103.09;;;11.49;57.44
57990;BME280;58373;51.824;5.564;2023-03-16T13:15:42;101097.66;;;11.52;56.58
57990;BME280;58373;51.824;5.564;2023-03-16T13:20:56;101089.34;;;11.58;56.35
57990;BME280;58373;51.824;5.564;2023-03-16T13:23:23;101089.34;;;11.58;57.29
57990;BME280;58373;51.824;5.564;2023-03-16T13:25:59;101094.31;;;11.61;57.46
57990;BME280;58373;51.824;5.564;2023-03-16T13:28:28;101088.44;;;11.59;56.87
57990;BME280;58373;51.824;5.564;2023-03-16T13:30:54;101087.97;;;11.54;56.94
57990;BME280;58373;51.824;5.564;2023-03-16T13:33:20;101091.25;;;11.56;56.87
57990;BME280;58373;51.824;5.564;2023-03-16T13:35:48;101079.41;;;11.63;53.93
57990;BME280;58373;51.824;5.564;2023-03-16T13:38:14;101077.53;;;11.65;56.65
57990;BME280;58373;51.824;5.564;2023-03-16T13:43:41;101084.03;;;11.81;52.55
57990;BME280;58373;51.824;5.564;2023-03-16T13:46:17;101076.53;;;11.78;52.85
57990;BME280;58373;51.824;5.564;2023-03-16T13:48:45;101073.09;;;11.77;52.11
57990;BME280;58373;51.824;5.564;2023-03-16T13:51:17;101062.72;;;11.77;51.76
57990;BME280;58373;51.824;5.564;2023-03-16T13:53:44;101070.38;;;11.79;51.51